Terminal Aerodrome Forecast
Issued by NWS

Home | Current Version | Previous Version | Text Only | Print | Product List | Glossary On
Versions: 1 2 3 4 5 6 7 8 9 10 11 12 13 14 15 16 17 18 19
000
FTUS43 KIND 221122
TAFHUF
TAF
KHUF 221122Z 2212/2312 17015KT P6SM VCSH OVC080 WS020/18050KT
     FM221300 17015KT 3SM SHRA OVC035 WS020/19050KT
     FM221500 17016KT 3SM SHRA OVC015 WS020/19045KT
     FM221800 18017G26KT P6SM BKN008
     FM222200 18015G23KT P6SM BKN060
     FM230600 22011KT P6SM OVC020
     FM230800 22012KT P6SM OVC015=

USA.gov is the U.S. government's official web portal to all federal, state and local government web resources and services.